Time;durP1;ratioP1;P1;durP2;ratioP2;P2;SDS_P1;SDS_P2;PMS_P1;PMS_P2;Temp;Humidity;BMP_temperature;BMP_pressure;BME280_temperature;BME280_humidity;BME280_pressure;Samples;Min_cycle;Max_cycle;Signal;HPM_P1;HPM_P2
2021/10/03 00:02:09;;;;;;;;;;;;;;;20.46;57.45;101888.97;5035563;28;1882;-58
2021/10/03 00:04:36;;;;;;;;;;;;;;;20.43;57.49;101885.66;5042492;28;1656;-58
2021/10/03 00:07:03;;;;;;;;;;;;;;;20.44;57.67;101884.69;5040850;28;968;-63
2021/10/03 00:09:31;;;;;;;;;;;;;;;20.45;56.44;101883.72;5026078;28;1795;-63
2021/10/03 00:11:57;;;;;;;;;;;;;;;20.41;56.98;101871.50;5043171;28;1459;-62
2021/10/03 00:14:24;;;;;;;;;;;;;;;20.44;56.86;101882.03;5045502;28;1906;-58
2021/10/03 00:16:53;;;;;;;;;;;;;;;20.44;57.34;101882.88;5042978;28;1063;-58
2021/10/03 00:19:20;;;;;;;;;;;;;;;20.49;57.25;101881.66;5047973;28;1506;-62
2021/10/03 00:21:47;;;;;;;;;;;;;;;20.49;56.50;101881.66;5030642;28;1415;-63
2021/10/03 00:24:14;;;;;;;;;;;;;;;20.41;57.11;101872.38;5038028;28;1557;-58
2021/10/03 00:26:41;;;;;;;;;;;;;;;20.46;56.83;101880.91;5034719;28;1577;-59
2021/10/03 00:29:07;;;;;;;;;;;;;;;20.48;56.27;101886.19;5027215;28;1584;-57
2021/10/03 00:31:34;;;;;;;;;;;;;;;20.41;56.98;101872.38;5031775;28;1588;-58
2021/10/03 00:34:02;;;;;;;;;;;;;;;20.41;56.20;101866.13;5047580;28;1969;-63
2021/10/03 00:36:29;;;;;;;;;;;;;;;20.40;57.24;101865.28;5046588;28;982;-58
2021/10/03 00:38:56;;;;;;;;;;;;;;;20.41;56.26;101867.00;5041296;28;1608;-58
2021/10/03 00:41:22;;;;;;;;;;;;;;;20.40;56.32;101862.59;5036609;28;1519;-57
2021/10/03 00:43:49;;;;;;;;;;;;;;;20.40;56.25;101869.78;5034141;28;1509;-58
2021/10/03 00:46:16;;;;;;;;;;;;;;;20.40;57.39;101864.41;5042299;28;1475;-63
2021/10/03 00:48:42;;;;;;;;;;;;;;;20.39;57.21;101836.72;5027886;28;1582;-58
2021/10/03 00:51:10;;;;;;;;;;;;;;;20.37;56.70;101840.47;5026092;28;1126;-62
2021/10/03 00:53:37;;;;;;;;;;;;;;;20.40;56.71;101842.94;5028421;28;1498;-58
2021/10/03 00:56:03;;;;;;;;;;;;;;;20.37;57.08;101854.78;5046624;28;1902;-57
2021/10/03 00:58:31;;;;;;;;;;;;;;;20.40;56.21;101837.56;5042215;28;1476;-58
2021/10/03 01:00:57;;;;;;;;;;;;;;;20.40;56.15;101859.06;5028948;28;1644;-63
2021/10/03 01:03:24;;;;;;;;;;;;;;;20.43;57.33;101858.78;5046039;28;1527;-62
2021/10/03 01:05:50;;;;;;;;;;;;;;;20.39;57.19;101862.69;5047478;28;1051;-58
2021/10/03 01:08:18;;;;;;;;;;;;;;;20.37;56.37;101860.16;5038565;28;1859;-57
2021/10/03 01:10:45;;;;;;;;;;;;;;;20.37;57.20;101861.97;5045152;28;1459;-63
2021/10/03 01:13:12;;;;;;;;;;;;;;;20.34;57.35;101832.66;5040708;28;1576;-57
2021/10/03 01:15:40;;;;;;;;;;;;;;;20.36;56.52;101857.56;5047069;28;1886;-63
2021/10/03 01:18:08;;;;;;;;;;;;;;;20.35;57.38;101858.53;5038032;28;1715;-63
2021/10/03 01:20:35;;;;;;;;;;;;;;;20.33;57.15;101820.19;5033065;28;1568;-58
2021/10/03 01:23:04;;;;;;;;;;;;;;;20.35;56.53;101855.84;5042621;28;1585;-58
2021/10/03 01:25:32;;;;;;;;;;;;;;;20.36;57.35;101836.09;5027131;28;1629;-58
2021/10/03 01:27:59;;;;;;;;;;;;;;;20.34;56.36;101828.13;5046404;28;1573;-57
2021/10/03 01:30:26;;;;;;;;;;;;;;;20.36;56.34;101842.31;5047302;28;1011;-62
2021/10/03 01:32:52;;;;;;;;;;;;;;;20.39;56.22;101851.94;5024143;28;1716;-62
2021/10/03 01:35:19;;;;;;;;;;;;;;;20.36;56.85;101846.81;5023942;28;1977;-63
2021/10/03 01:37:46;;;;;;;;;;;;;;;20.38;56.21;101839.50;5034996;28;1475;-57
2021/10/03 01:40:14;;;;;;;;;;;;;;;20.36;55.83;101852.19;5047147;28;1127;-63
2021/10/03 01:42:41;;;;;;;;;;;;;;;20.33;55.95;101845.22;5047018;28;1874;-58
2021/10/03 01:45:09;;;;;;;;;;;;;;;20.33;56.60;101844.38;5045204;28;1530;-57
2021/10/03 01:47:56;;;;;;;;;;;;;;;20.33;56.98;101844.38;5045950;28;1716;-63
2021/10/03 01:50:23;;;;;;;;;;;;;;;20.33;56.33;101847.91;5021133;28;1878;-63
2021/10/03 01:52:49;;;;;;;;;;;;;;;20.33;56.21;101841.69;5034356;28;1618;-57
2021/10/03 01:55:17;;;;;;;;;;;;;;;20.30;56.95;101823.13;5015988;28;2099;-63
2021/10/03 01:57:44;;;;;;;;;;;;;;;20.32;56.21;101845.34;5027619;28;1003;-63
2021/10/03 02:00:11;;;;;;;;;;;;;;;20.33;56.41;101841.69;5026740;28;1705;-63
2021/10/03 02:02:38;;;;;;;;;;;;;;;20.30;56.36;101841.94;5033896;28;1472;-58
2021/10/03 02:05:05;;;;;;;;;;;;;;;20.31;56.02;101849.00;5047480;28;1683;-63
2021/10/03 02:07:31;;;;;;;;;;;;;;;20.30;55.80;101841.94;5038120;28;1084;-63
2021/10/03 02:09:58;;;;;;;;;;;;;;;20.34;56.16;101855.00;5027217;28;1877;-63
2021/10/03 02:12:26;;;;;;;;;;;;;;;20.30;55.94;101848.16;5043680;28;1487;-63
2021/10/03 02:14:53;;;;;;;;;;;;;;;20.31;56.96;101827.50;5043203;28;1918;-59
2021/10/03 02:17:19;;;;;;;;;;;;;;;20.27;56.79;101817.03;5034957;28;1483;-63
2021/10/03 02:19:46;;;;;;;;;;;;;;;20.27;55.80;101822.41;5024620;28;1264;-63
2021/10/03 02:22:14;;;;;;;;;;;;;;;20.27;55.85;101843.00;5045167;28;992;-57
2021/10/03 02:24:41;;;;;;;;;;;;;;;20.32;56.05;101850.72;5023323;28;1527;-58
2021/10/03 02:27:07;;;;;;;;;;;;;;;20.26;57.06;101828.72;5016154;28;1684;-60
2021/10/03 02:29:35;;;;;;;;;;;;;;;20.28;55.99;101831.31;5050326;28;1064;-63
2021/10/03 02:32:02;;;;;;;;;;;;;;;20.31;56.25;101846.31;5022775;28;1699;-57
2021/10/03 02:34:28;;;;;;;;;;;;;;;20.26;55.72;101836.78;5022771;28;1965;-63
2021/10/03 02:36:55;;;;;;;;;;;;;;;20.25;55.74;101829.72;5024439;28;1778;-58
2021/10/03 02:39:22;;;;;;;;;;;;;;;20.29;56.08;101841.06;5035433;28;1541;-63
2021/10/03 02:41:48;;;;;;;;;;;;;;;20.28;55.99;101839.34;5045623;28;1568;-58
2021/10/03 02:44:15;;;;;;;;;;;;;;;20.24;56.55;101827.97;5041724;28;1565;-58
2021/10/03 02:46:43;;;;;;;;;;;;;;;20.24;56.61;101817.25;5024003;28;1519;-57
2021/10/03 02:49:09;;;;;;;;;;;;;;;20.25;56.81;101845.81;5015577;28;1080;-58
2021/10/03 02:51:36;;;;;;;;;;;;;;;20.25;56.56;101840.47;5045060;28;1869;-57
2021/10/03 02:54:03;;;;;;;;;;;;;;;20.26;56.58;101846.69;5027864;28;1696;-63
2021/10/03 02:56:30;;;;;;;;;;;;;;;20.26;56.00;101850.22;5033830;28;2045;-63
2021/10/03 02:58:57;;;;;;;;;;;;;;;20.27;56.22;101862.69;5035539;28;1428;-58
2021/10/03 03:01:24;;;;;;;;;;;;;;;20.22;56.39;101859.47;5031457;28;1416;-63
2021/10/03 03:03:52;;;;;;;;;;;;;;;20.23;55.71;101852.28;5044732;28;1659;-57
2021/10/03 03:06:18;;;;;;;;;;;;;;;20.24;56.75;101868.28;5043514;28;1035;-58
2021/10/03 03:08:46;;;;;;;;;;;;;;;20.24;56.76;101860.22;5030833;28;1712;-63
2021/10/03 03:11:13;;;;;;;;;;;;;;;20.22;55.79;101856.78;5024284;28;1859;-63
2021/10/03 03:13:39;;;;;;;;;;;;;;;20.23;56.62;101847.78;5022607;28;1593;-57
2021/10/03 03:16:06;;;;;;;;;;;;;;;20.24;55.88;101860.22;5026272;28;1906;-57
2021/10/03 03:18:32;;;;;;;;;;;;;;;20.23;56.26;101858.53;5039634;28;1739;-58
2021/10/03 03:21:00;;;;;;;;;;;;;;;20.26;56.44;101863.63;5033531;28;1722;-57
2021/10/03 03:23:27;;;;;;;;;;;;;;;20.22;56.64;101835.31;5029929;28;1517;-57
2021/10/03 03:25:54;;;;;;;;;;;;;;;20.21;56.33;101848.84;5040063;28;1992;-63
2021/10/03 03:28:20;;;;;;;;;;;;;;;20.21;56.71;101838.97;5026814;28;1616;-57
2021/10/03 03:30:47;;;;;;;;;;;;;;;20.20;56.06;101856.06;5042329;28;1569;-63
2021/10/03 03:33:15;;;;;;;;;;;;;;;20.20;55.56;101855.22;5045324;28;1071;-58
2021/10/03 03:35:41;;;;;;;;;;;;;;;20.18;55.78;101847.25;5026012;28;1975;-58
2021/10/03 03:38:10;;;;;;;;;;;;;;;20.20;56.44;101858.75;5020438;28;1483;-58
2021/10/03 03:40:36;;;;;;;;;;;;;;;20.23;56.58;101858.53;5043788;28;1564;-57
2021/10/03 03:43:03;;;;;;;;;;;;;;;20.22;56.49;101850.56;5043881;28;1428;-63
2021/10/03 03:45:30;;;;;;;;;;;;;;;20.22;55.31;101856.78;5027620;28;999;-58
2021/10/03 03:48:01;;;;;;;;;;;;;;;20.20;55.64;101861.44;5048563;28;1505;-63
2021/10/03 03:50:27;;;;;;;;;;;;;;;20.20;55.74;101864.13;5048780;28;1483;-57
2021/10/03 03:52:54;;;;;;;;;;;;;;;20.20;55.60;101858.75;5038397;28;1759;-63
2021/10/03 03:55:22;;;;;;;;;;;;;;;20.19;55.87;101846.31;5048241;28;1975;-63
2021/10/03 03:57:51;;;;;;;;;;;;;;;20.18;56.36;101860.69;5045910;28;1050;-63
2021/10/03 04:00:18;;;;;;;;;;;;;;;20.16;55.53;101859.94;5047865;28;1587;-63
2021/10/03 04:02:45;;;;;;;;;;;;;;;20.16;56.52;101862.63;5025031;28;1660;-57
2021/10/03 04:05:11;;;;;;;;;;;;;;;20.16;56.50;101861.78;5046644;28;1455;-57
2021/10/03 04:07:38;;;;;;;;;;;;;;;20.14;55.60;101878.00;5045598;28;1479;-58
2021/10/03 04:10:06;;;;;;;;;;;;;;;20.14;56.51;101869.09;5045469;28;1424;-58
2021/10/03 04:12:33;;;;;;;;;;;;;;;20.17;55.65;101877.75;5042796;28;1068;-63
2021/10/03 04:15:00;;;;;;;;;;;;;;;20.16;56.40;101884.13;5025905;28;1911;-62
2021/10/03 04:17:26;;;;;;;;;;;;;;;20.17;56.59;101885.81;5038674;28;1715;-58
2021/10/03 04:19:53;;;;;;;;;;;;;;;20.13;56.43;101881.66;5047146;28;1982;-63
2021/10/03 04:22:20;;;;;;;;;;;;;;;20.18;56.28;101894.75;5048951;28;985;-63
2021/10/03 04:24:46;;;;;;;;;;;;;;;20.14;55.49;101890.59;5047592;28;1727;-58
2021/10/03 04:27:13;;;;;;;;;;;;;;;20.16;55.44;101897.53;5046034;28;1528;-57
2021/10/03 04:29:41;;;;;;;;;;;;;;;20.13;55.51;101889.72;5032234;28;1593;-61
2021/10/03 04:32:08;;;;;;;;;;;;;;;20.17;55.58;101909.97;5029764;28;1700;-57
2021/10/03 04:34:34;;;;;;;;;;;;;;;20.13;56.32;101891.53;5027508;28;1596;-58
2021/10/03 04:37:01;;;;;;;;;;;;;;;20.13;55.50;101905.81;5030440;28;1910;-62
2021/10/03 04:39:28;;;;;;;;;;;;;;;20.13;55.28;101910.34;5031004;28;1751;-57
2021/10/03 04:41:55;;;;;;;;;;;;;;;20.15;56.20;101906.56;5024190;28;1618;-58
2021/10/03 04:44:21;;;;;;;;;;;;;;;20.13;55.96;101904.97;5037296;28;1757;-63
2021/10/03 04:46:49;;;;;;;;;;;;;;;20.14;55.29;101912.06;5036682;28;1541;-63
2021/10/03 04:49:16;;;;;;;;;;;;;;;20.15;55.61;101917.31;5029135;28;1655;-57
2021/10/03 04:51:43;;;;;;;;;;;;;;;20.14;55.47;101912.91;5028735;28;2122;-57
2021/10/03 04:54:09;;;;;;;;;;;;;;;20.14;55.07;101907.56;5029180;28;1652;-63
2021/10/03 04:56:36;;;;;;;;;;;;;;;20.15;55.13;101908.41;5036451;28;1902;-63
2021/10/03 04:59:02;;;;;;;;;;;;;;;20.14;55.64;101902.19;5039764;28;1600;-63
2021/10/03 05:01:29;;;;;;;;;;;;;;;20.17;55.51;101918.03;5028780;28;1589;-63
2021/10/03 05:03:57;;;;;;;;;;;;;;;20.14;55.15;101912.06;5029192;28;1639;-63
2021/10/03 05:06:24;;;;;;;;;;;;;;;20.16;56.03;101926.25;5045852;28;1066;-62
2021/10/03 05:08:50;;;;;;;;;;;;;;;20.11;55.51;101923.88;5031889;28;1459;-63
2021/10/03 05:11:17;;;;;;;;;;;;;;;20.13;55.19;101921.94;5030783;28;1531;-63
2021/10/03 05:13:44;;;;;;;;;;;;;;;20.11;55.49;101923.88;5033633;28;1428;-63
2021/10/03 05:16:11;;;;;;;;;;;;;;;20.13;55.19;101924.63;5045833;28;1989;-57
2021/10/03 05:18:37;;;;;;;;;;;;;;;20.13;55.87;101929.13;5030624;28;1771;-63
2021/10/03 05:21:06;;;;;;;;;;;;;;;20.13;55.26;101921.94;5035498;28;1620;-58
2021/10/03 05:23:34;;;;;;;;;;;;;;;20.19;55.39;101918.81;5043979;28;1572;-58
2021/10/03 05:26:00;;;;;;;;;;;;;;;20.18;55.97;101918.91;5042849;28;1448;-58
2021/10/03 05:28:27;;;;;;;;;;;;;;;20.18;55.53;101930.50;5044732;28;1557;-57
2021/10/03 05:30:53;;;;;;;;;;;;;;;20.27;55.67;101942.38;5044377;28;1483;-58
2021/10/03 05:33:20;;;;;;;;;;;;;;;20.25;55.97;101930.91;5046325;28;1568;-63
2021/10/03 05:35:47;;;;;;;;;;;;;;;20.26;54.93;101938.84;5046734;28;1910;-63
2021/10/03 05:38:15;;;;;;;;;;;;;;;20.30;55.00;101944.00;5037258;28;1476;-63
2021/10/03 05:40:41;;;;;;;;;;;;;;;20.31;55.77;101937.66;5045580;28;1514;-63
2021/10/03 05:43:08;;;;;;;;;;;;;;;20.33;56.14;101930.31;5044261;28;1885;-57
2021/10/03 05:45:34;;;;;;;;;;;;;;;20.36;56.18;101944.38;5026995;28;1573;-63
2021/10/03 05:48:01;;;;;;;;;;;;;;;20.39;55.50;101951.34;5024194;28;1079;-63
2021/10/03 05:50:27;;;;;;;;;;;;;;;20.41;55.03;101941.34;5045882;28;1540;-63
2021/10/03 05:52:54;;;;;;;;;;;;;;;20.40;55.55;101935.13;5033535;28;1629;-59
2021/10/03 05:55:22;;;;;;;;;;;;;;;20.46;55.86;101941.88;5025124;28;1981;-57
2021/10/03 05:57:49;;;;;;;;;;;;;;;20.44;55.47;101930.38;5030451;28;1279;-58
2021/10/03 06:00:15;;;;;;;;;;;;;;;20.53;55.80;101950.31;5045385;28;1743;-57
2021/10/03 06:02:42;;;;;;;;;;;;;;;20.57;55.32;101941.03;5023632;28;1759;-57
2021/10/03 06:05:09;;;;;;;;;;;;;;;20.59;55.21;101956.13;5020835;28;1709;-63
2021/10/03 06:07:35;;;;;;;;;;;;;;;20.62;55.69;101949.66;5033405;28;1628;-58
2021/10/03 06:10:02;;;;;;;;;;;;;;;20.59;55.68;101945.38;5024064;28;1889;-63
2021/10/03 06:12:30;;;;;;;;;;;;;;;20.69;54.85;101947.34;5028783;28;1712;-58
2021/10/03 06:14:56;;;;;;;;;;;;;;;20.63;54.90;101949.53;5041876;28;1755;-58
2021/10/03 06:17:23;;;;;;;;;;;;;;;20.61;54.64;101948.81;5034398;28;1979;-58
2021/10/03 06:19:50;;;;;;;;;;;;;;;20.63;55.27;101951.34;5026014;28;1577;-58
2021/10/03 06:22:21;;;;;;;;;;;;;;;20.60;55.75;101949.75;5030183;28;1131;-58
2021/10/03 06:24:47;;;;;;;;;;;;;;;20.59;56.04;101955.25;5028281;28;1509;-63
2021/10/03 06:27:14;;;;;;;;;;;;;;;20.64;55.72;101955.75;5040474;28;1513;-63
2021/10/03 06:29:42;;;;;;;;;;;;;;;20.68;54.81;101961.75;5026935;28;1584;-63
2021/10/03 06:32:10;;;;;;;;;;;;;;;20.66;55.54;101954.66;5024372;28;1539;-63
2021/10/03 06:34:37;;;;;;;;;;;;;;;20.71;55.84;101956.13;5035188;28;1628;-58
2021/10/03 06:37:04;;;;;;;;;;;;;;;20.72;55.96;101956.03;5041586;28;1906;-63
2021/10/03 06:39:31;;;;;;;;;;;;;;;20.73;55.05;101962.25;5043541;28;1591;-57
2021/10/03 06:41:57;;;;;;;;;;;;;;;20.71;54.94;101942.69;5042808;28;1652;-63
2021/10/03 06:44:24;;;;;;;;;;;;;;;20.76;55.93;101953.97;5043470;28;1529;-58
2021/10/03 06:46:52;;;;;;;;;;;;;;;20.78;56.04;101958.25;5034971;28;1541;-63
2021/10/03 06:49:18;;;;;;;;;;;;;;;20.76;55.46;101956.66;5029815;28;1561;-58
2021/10/03 06:51:45;;;;;;;;;;;;;;;20.74;56.11;101947.84;5043713;28;1010;-63
2021/10/03 06:54:11;;;;;;;;;;;;;;;20.79;55.15;101959.09;5040631;28;1528;-58
2021/10/03 06:56:38;;;;;;;;;;;;;;;20.74;55.58;101958.59;5043226;28;1883;-57
2021/10/03 06:59:05;;;;;;;;;;;;;;;20.76;55.73;101962.88;5043211;28;1517;-58
2021/10/03 07:01:31;;;;;;;;;;;;;;;20.74;56.28;101954.06;5036895;28;1447;-62
2021/10/03 07:03:59;;;;;;;;;;;;;;;20.77;56.22;101955.66;5030516;28;1487;-57
2021/10/03 07:06:26;;;;;;;;;;;;;;;20.76;56.17;101951.28;5043366;28;1024;-63
2021/10/03 07:08:52;;;;;;;;;;;;;;;20.76;56.26;101952.13;5038168;28;1460;-58
2021/10/03 07:11:19;;;;;;;;;;;;;;;20.79;55.37;101951.03;5037384;28;1597;-58
2021/10/03 07:13:46;;;;;;;;;;;;;;;20.80;55.39;101939.31;5027660;28;1584;-58
2021/10/03 07:16:12;;;;;;;;;;;;;;;20.76;55.59;101957.50;5043667;28;1973;-57
2021/10/03 07:18:39;;;;;;;;;;;;;;;20.78;56.07;101955.56;5029899;28;2203;-57
2021/10/03 07:21:07;;;;;;;;;;;;;;;20.80;56.47;101958.13;5037675;28;1483;-63
2021/10/03 07:23:33;;;;;;;;;;;;;;;20.82;56.20;101957.03;5041180;28;1577;-58
2021/10/03 07:26:00;;;;;;;;;;;;;;;20.79;55.84;101934.88;5031291;28;1472;-58
2021/10/03 07:28:27;;;;;;;;;;;;;;;20.78;55.42;101943.94;5048690;28;1487;-63
2021/10/03 07:30:53;;;;;;;;;;;;;;;20.79;56.06;101946.53;5046505;28;1487;-58
2021/10/03 07:33:20;;;;;;;;;;;;;;;20.80;55.48;101950.91;5048684;28;1636;-63
2021/10/03 07:35:47;;;;;;;;;;;;;;;20.82;56.22;101950.81;5030152;28;1899;-63
2021/10/03 07:38:15;;;;;;;;;;;;;;;20.81;56.17;101952.66;5020479;28;1716;-63
2021/10/03 07:40:43;;;;;;;;;;;;;;;20.82;55.52;101954.34;5028169;28;1494;-63
2021/10/03 07:43:09;;;;;;;;;;;;;;;20.82;55.23;101954.34;5028032;28;1629;-63
2021/10/03 07:45:36;;;;;;;;;;;;;;;20.87;55.20;101956.69;5018565;28;1433;-63
2021/10/03 07:48:03;;;;;;;;;;;;;;;20.84;55.53;101956.91;5048627;28;1551;-57
2021/10/03 07:50:30;;;;;;;;;;;;;;;20.86;56.29;101960.34;5027853;28;1539;-57
2021/10/03 07:52:56;;;;;;;;;;;;;;;20.90;55.89;101961.81;5036026;28;1576;-63
2021/10/03 07:55:28;;;;;;;;;;;;;;;20.87;55.43;101954.00;5027355;28;1593;-58
2021/10/03 07:57:55;;;;;;;;;;;;;;;20.88;56.47;101958.38;5045403;28;1906;-62
2021/10/03 08:00:21;;;;;;;;;;;;;;;20.86;56.27;101965.72;5048635;28;2004;-57
2021/10/03 08:02:48;;;;;;;;;;;;;;;20.89;56.45;101968.19;5034332;28;1909;-57
2021/10/03 08:05:14;;;;;;;;;;;;;;;20.86;56.20;101939.69;5031004;28;1684;-63
2021/10/03 08:07:41;;;;;;;;;;;;;;;20.86;56.50;101961.19;5046983;28;1064;-63
2021/10/03 08:10:08;;;;;;;;;;;;;;;20.89;56.57;101954.75;5043957;28;1420;-58
2021/10/03 08:12:36;;;;;;;;;;;;;;;20.91;56.01;101950.09;5045952;28;1628;-63
2021/10/03 08:15:02;;;;;;;;;;;;;;;20.92;56.32;101945.56;5045987;28;1400;-63
2021/10/03 08:17:29;;;;;;;;;;;;;;;20.92;56.45;101953.63;5042715;28;1886;-63
2021/10/03 08:19:56;;;;;;;;;;;;;;;20.89;56.50;101943.97;5027149;28;1619;-64
2021/10/03 08:22:22;;;;;;;;;;;;;;;20.91;56.67;101947.41;5026988;28;978;-58
2021/10/03 08:24:49;;;;;;;;;;;;;;;20.92;55.98;101956.31;5030229;28;1576;-57
2021/10/03 08:27:15;;;;;;;;;;;;;;;20.92;56.14;101949.09;5043294;28;1560;-57
2021/10/03 08:29:43;;;;;;;;;;;;;;;20.93;56.30;101958.03;5028076;28;1622;-63
2021/10/03 08:32:10;;;;;;;;;;;;;;;20.94;56.64;101949.00;5040349;28;1582;-58
2021/10/03 08:34:36;;;;;;;;;;;;;;;20.91;55.92;101947.41;5035432;28;1606;-58
2021/10/03 08:37:03;;;;;;;;;;;;;;;20.97;55.72;101955.00;5031578;28;1977;-63
2021/10/03 08:39:30;;;;;;;;;;;;;;;20.92;56.72;101953.63;5045993;28;1806;-58
2021/10/03 08:41:56;;;;;;;;;;;;;;;20.96;56.21;101953.28;5045635;28;1551;-63
2021/10/03 08:44:26;;;;;;;;;;;;;;;20.94;56.01;101944.47;5045599;28;1577;-57
2021/10/03 08:46:54;;;;;;;;;;;;;;;20.94;56.25;101931.03;5045890;28;1572;-58
2021/10/03 08:49:21;;;;;;;;;;;;;;;20.95;56.77;101924.69;5045800;28;1626;-63
2021/10/03 08:51:48;;;;;;;;;;;;;;;20.95;56.63;101945.31;5045741;28;1064;-63
2021/10/03 08:54:16;;;;;;;;;;;;;;;20.95;56.47;101934.56;5043870;28;1558;-58
2021/10/03 08:56:43;;;;;;;;;;;;;;;20.99;56.39;101925.28;5045432;28;1978;-57
2021/10/03 08:59:09;;;;;;;;;;;;;;;20.96;56.45;101939.81;5044738;28;1320;-58
2021/10/03 09:01:47;;;;;;;;;;;;;;;20.93;55.96;101936.50;5037966;28;1876;-62
2021/10/03 09:04:25;;;;;;;;;;;;;;;21.00;55.85;101927.00;5026737;28;1660;-63
2021/10/03 09:07:06;;;;;;;;;;;;;;;20.94;56.84;101944.47;5041830;28;1070;-58
2021/10/03 09:09:49;;;;;;;;;;;;;;;20.94;56.34;101922.94;5049487;28;1591;-57
2021/10/03 09:12:22;;;;;;;;;;;;;;;20.95;56.00;101927.38;5022031;28;1584;-63
2021/10/03 09:14:48;;;;;;;;;;;;;;;20.94;56.14;101931.03;5041019;28;1659;-59
2021/10/03 09:17:17;;;;;;;;;;;;;;;20.95;56.73;101918.41;5037823;28;1910;-63
2021/10/03 09:19:59;;;;;;;;;;;;;;;20.96;56.56;101915.63;5047726;28;1067;-63
2021/10/03 09:22:27;;;;;;;;;;;;;;;20.97;56.72;101929.91;5047856;28;930;-58
2021/10/03 09:24:53;;;;;;;;;;;;;;;20.96;55.64;101904.88;5046648;28;1416;-58
2021/10/03 09:27:20;;;;;;;;;;;;;;;20.99;56.03;101915.41;5047039;28;1723;-58
2021/10/03 09:29:46;;;;;;;;;;;;;;;20.97;56.73;101922.72;5043055;28;1542;-63
2021/10/03 09:32:14;;;;;;;;;;;;;;;21.00;55.77;101895.56;5043932;28;1649;-58
2021/10/03 09:34:44;;;;;;;;;;;;;;;21.00;56.23;101910.88;5044132;28;1961;-58
2021/10/03 09:37:22;;;;;;;;;;;;;;;21.02;56.63;101920.50;5041543;28;1906;-63
2021/10/03 09:39:51;;;;;;;;;;;;;;;21.05;55.83;101906.84;5024358;28;1764;-62
2021/10/03 09:42:19;;;;;;;;;;;;;;;21.06;55.79;101887.03;5045503;28;1567;-63
2021/10/03 09:45:05;;;;;;;;;;;;;;;21.08;56.54;101915.63;5030103;28;1606;-57
2021/10/03 09:47:31;;;;;;;;;;;;;;;21.10;56.21;101906.47;5021446;28;1581;-59
2021/10/03 09:49:58;;;;;;;;;;;;;;;21.07;56.13;101901.34;5041385;28;1576;-63
2021/10/03 09:52:25;;;;;;;;;;;;;;;21.08;55.63;101899.50;5039620;28;999;-63
2021/10/03 09:54:53;;;;;;;;;;;;;;;21.09;56.09;101882.38;5045409;28;1563;-58
2021/10/03 09:57:20;;;;;;;;;;;;;;;21.10;55.88;101876.03;5024278;28;1910;-58
2021/10/03 09:59:46;;;;;;;;;;;;;;;21.11;55.52;101885.78;5043195;28;1633;-58
2021/10/03 10:02:13;;;;;;;;;;;;;;;21.09;56.40;101885.06;5043180;28;1614;-62
2021/10/03 10:04:40;;;;;;;;;;;;;;;21.12;56.61;101906.34;5033679;28;1716;-58
2021/10/03 10:07:06;;;;;;;;;;;;;;;21.13;56.76;101905.34;5030006;28;1218;-57
2021/10/03 10:09:34;;;;;;;;;;;;;;;21.12;55.64;101860.63;5025201;28;1728;-63
2021/10/03 10:12:06;;;;;;;;;;;;;;;21.14;56.21;101896.31;5035190;28;1523;-57
2021/10/03 10:14:34;;;;;;;;;;;;;;;21.10;55.74;101851.81;5038930;28;1542;-63
2021/10/03 10:17:21;;;;;;;;;;;;;;;21.14;56.55;101880.19;5045814;28;1973;-63
2021/10/03 10:19:47;;;;;;;;;;;;;;;21.16;55.89;101872.84;5024430;28;1521;-63
2021/10/03 10:22:38;;;;;;;;;;;;;;;21.15;56.27;101866.63;5045853;28;1040;-63
2021/10/03 10:25:06;;;;;;;;;;;;;;;21.16;56.42;101876.38;5015957;28;1059;-63
2021/10/03 10:27:48;;;;;;;;;;;;;;;21.16;56.19;101867.47;5016989;28;1818;-58
2021/10/03 10:30:17;;;;;;;;;;;;;;;21.19;56.50;101835.81;5019235;28;1393;-63
2021/10/03 10:32:59;;;;;;;;;;;;;;;21.16;55.62;101833.34;5042262;28;1445;-63
2021/10/03 10:35:26;;;;;;;;;;;;;;;21.15;55.47;101828.09;5017710;28;1546;-63
2021/10/03 10:38:13;;;;;;;;;;;;;;;21.13;55.80;101830.03;5024818;28;1989;-63
2021/10/03 10:40:39;;;;;;;;;;;;;;;21.15;56.58;101830.78;5043955;28;1716;-58
2021/10/03 10:43:21;;;;;;;;;;;;;;;21.16;55.73;101824.44;5028267;28;1548;-58
2021/10/03 10:45:50;;;;;;;;;;;;;;;21.15;55.76;101822.69;5020349;28;1768;-63
2021/10/03 10:48:17;;;;;;;;;;;;;;;21.16;56.31;101824.44;5041146;28;1456;-58
2021/10/03 10:50:58;;;;;;;;;;;;;;;21.13;56.00;101821.97;5031013;28;1703;-63
2021/10/03 10:53:25;;;;;;;;;;;;;;;21.14;55.66;101821.84;5034391;28;1779;-58
2021/10/03 10:56:00;;;;;;;;;;;;;;;21.15;56.34;101817.31;5045270;28;1623;-63
2021/10/03 10:58:27;;;;;;;;;;;;;;;21.11;56.01;101805.97;5041978;28;1898;-58
2021/10/03 11:00:58;;;;;;;;;;;;;;;21.11;56.79;101802.41;5024250;28;1489;-63
2021/10/03 11:03:44;;;;;;;;;;;;;;;21.13;55.81;101803.16;5024630;28;1589;-63
2021/10/03 11:06:11;;;;;;;;;;;;;;;21.11;56.78;101805.97;5039112;28;1048;-57
2021/10/03 11:09:01;;;;;;;;;;;;;;;21.13;56.19;101811.22;5035722;28;1771;-57
2021/10/03 11:11:28;;;;;;;;;;;;;;;21.12;56.68;101799.63;5042498;28;1643;-58
2021/10/03 11:13:56;;;;;;;;;;;;;;;21.12;55.81;101798.75;5038036;28;1512;-63
2021/10/03 11:16:24;;;;;;;;;;;;;;;21.15;55.85;101801.19;5015132;28;1049;-63
2021/10/03 11:18:52;;;;;;;;;;;;;;;21.11;56.65;101783.59;5020333;28;1911;-63
2021/10/03 11:21:23;;;;;;;;;;;;;;;21.12;55.99;101801.44;5026511;28;1595;-63
2021/10/03 11:23:49;;;;;;;;;;;;;;;21.12;56.03;101801.44;5032182;28;1451;-62
2021/10/03 11:26:17;;;;;;;;;;;;;;;21.12;56.99;101791.53;5043172;28;1585;-63
2021/10/03 11:28:54;;;;;;;;;;;;;;;21.10;56.72;101788.13;5045029;28;1592;-58
2021/10/03 11:31:38;;;;;;;;;;;;;;;21.11;57.03;101784.47;5044223;28;1539;-63
2021/10/03 11:34:05;;;;;;;;;;;;;;;21.14;55.80;101797.66;5032438;28;1595;-63
2021/10/03 11:36:32;;;;;;;;;;;;;;;21.13;56.32;101787.00;5043576;28;1044;-63
2021/10/03 11:38:59;;;;;;;;;;;;;;;21.13;56.60;101787.88;5039547;28;1985;-63
2021/10/03 11:41:26;;;;;;;;;;;;;;;21.11;56.10;101789.84;5035628;28;1519;-63
2021/10/03 11:43:53;;;;;;;;;;;;;;;21.15;56.10;101793.13;5023466;28;1475;-63
2021/10/03 11:46:20;;;;;;;;;;;;;;;21.11;57.04;101775.53;5027392;28;1451;-63
2021/10/03 11:48:53;;;;;;;;;;;;;;;21.16;56.04;101776.00;5045118;28;1539;-58
2021/10/03 11:51:19;;;;;;;;;;;;;;;21.14;56.01;101772.59;5039994;28;1865;-63
2021/10/03 11:53:49;;;;;;;;;;;;;;;21.19;55.89;101771.25;5029769;28;1440;-58
2021/10/03 11:56:18;;;;;;;;;;;;;;;21.17;56.78;101777.72;5028198;28;1409;-57
2021/10/03 11:58:46;;;;;;;;;;;;;;;21.13;56.14;101762.81;5031265;28;1976;-63
2021/10/03 12:01:13;;;;;;;;;;;;;;;21.14;57.02;101772.59;5039671;28;1582;-57
2021/10/03 12:03:47;;;;;;;;;;;;;;;21.14;56.29;101760.00;5025537;28;1589;-57
2021/10/03 12:06:19;;;;;;;;;;;;;;;21.11;56.29;101771.03;5032579;28;970;-62
2021/10/03 12:08:46;;;;;;;;;;;;;;;21.12;57.00;101769.19;5042052;28;1522;-58
2021/10/03 12:11:13;;;;;;;;;;;;;;;21.17;56.12;101766.94;5035099;28;1625;-62
2021/10/03 12:13:40;;;;;;;;;;;;;;;21.12;57.00;101764.66;5048247;28;1480;-63
2021/10/03 12:16:14;;;;;;;;;;;;;;;21.13;57.04;101760.13;5046946;28;986;-57
2021/10/03 12:18:46;;;;;;;;;;;;;;;21.13;56.33;101765.50;5043323;28;2025;-58
2021/10/03 12:21:14;;;;;;;;;;;;;;;21.10;57.10;101755.00;5046238;28;1573;-60
2021/10/03 12:23:44;;;;;;;;;;;;;;;21.09;57.16;101747.91;5039391;28;1581;-63
2021/10/03 12:26:12;;;;;;;;;;;;;;;21.15;56.81;101755.47;5030091;28;1040;-63
2021/10/03 12:28:56;;;;;;;;;;;;;;;21.11;56.25;101745.94;5029542;28;1720;-58
2021/10/03 12:31:40;;;;;;;;;;;;;;;21.12;57.14;101742.28;5027345;28;1588;-63
2021/10/03 12:34:08;;;;;;;;;;;;;;;21.11;56.20;101737.88;5042641;28;1660;-58
2021/10/03 12:36:34;;;;;;;;;;;;;;;21.09;56.31;101742.53;5045257;28;1573;-58
2021/10/03 12:39:02;;;;;;;;;;;;;;;21.10;56.84;101734.34;5042329;28;1902;-58
2021/10/03 12:41:29;;;;;;;;;;;;;;;21.15;57.13;101748.28;5040993;28;1873;-58
2021/10/03 12:43:56;;;;;;;;;;;;;;;21.15;57.08;101750.09;5047732;28;1584;-63
2021/10/03 12:46:23;;;;;;;;;;;;;;;21.10;56.71;101720.03;5017883;28;1061;-62
2021/10/03 12:48:49;;;;;;;;;;;;;;;21.11;57.21;101740.56;5047123;28;1755;-58
2021/10/03 12:51:16;;;;;;;;;;;;;;;21.11;56.82;101757.56;5025270;28;1771;-62
2021/10/03 12:53:43;;;;;;;;;;;;;;;21.12;57.27;101753.88;5038495;28;1437;-63